Terminal Aerodrome Forecast
Issued by NWS Mt. Holly, NJ

Home | Current Version | Previous Version | Text Only | Print | Product List | Glossary On
Versions: 1 2 3 4 5 6 7 8 9 10 11 12 13 14 15 16 17 18 19 20 21 22 23 24 25 26 27 28 29 30 31 32 33 34 35 36 37 38 39 40 41 42 43 44 45 46 47 48 49 50
000
FTUS41 KPHI 012351
TAFABE
TAF
KABE 012351Z 0200/0224 VRB02KT 3SM -SN OVC015
      TEMPO 0202/0205 -FZRA OVC008
     FM020500 25002KT 3SM BR OVC004
     FM021000 31006KT P6SM OVC050
     FM021500 32012G22KT P6SM SCT050 SCT250=

USA.gov is the U.S. government's official web portal to all federal, state and local government web resources and services.